Time;durP1;ratioP1;P1;durP2;ratioP2;P2;SDS_P1;SDS_P2;PMS_P1;PMS_P2;Temp;Humidity;BMP_temperature;BMP_pressure;BME280_temperature;BME280_humidity;BME280_pressure;Samples;Min_cycle;Max_cycle;Signal;HPM_P1;HPM_P2
2023/07/09 00:01:43;;;;;;;10.75;7.28;;;25.20;69.60;;;;;;5036541;28;20045;-71
2023/07/09 00:04:13;;;;;;;8.63;7.07;;;25.20;69.90;;;;;;5041180;28;20040;-71
2023/07/09 00:06:40;;;;;;;11.45;7.80;;;25.10;70.10;;;;;;5039119;28;20048;-71
2023/07/09 00:09:20;;;;;;;10.52;7.32;;;25.10;70.30;;;;;;5056278;28;20040;-72
2023/07/09 00:11:46;;;;;;;10.43;7.38;;;25.10;70.50;;;;;;5038474;28;20548;-71
2023/07/09 00:14:14;;;;;;;10.27;7.10;;;25.00;70.60;;;;;;5049379;28;20049;-71
2023/07/09 00:16:41;;;;;;;9.80;7.03;;;25.00;70.70;;;;;;5052120;28;20052;-71
2023/07/09 00:19:18;;;;;;;11.32;7.38;;;25.00;70.80;;;;;;5056096;28;20036;-71
2023/07/09 00:21:46;;;;;;;9.90;7.25;;;25.00;70.80;;;;;;5037432;28;20087;-72
2023/07/09 00:24:15;;;;;;;10.82;7.28;;;25.00;71.00;;;;;;5030685;28;20519;-71
2023/07/09 00:26:41;;;;;;;8.63;6.80;;;25.00;71.10;;;;;;5054872;28;20040;-71
2023/07/09 00:29:13;;;;;;;9.73;7.68;;;24.90;71.40;;;;;;5051765;28;20048;-72
2023/07/09 00:31:40;;;;;;;8.60;7.70;;;24.90;71.90;;;;;;5047222;28;20044;-71
2023/07/09 00:34:13;;;;;;;9.23;7.18;;;24.90;71.80;;;;;;5026035;28;20411;-72
2023/07/09 00:36:43;;;;;;;8.60;7.43;;;24.90;71.90;;;;;;5052938;28;20063;-71
2023/07/09 00:39:18;;;;;;;14.88;7.60;;;24.90;72.20;;;;;;5052854;28;20093;-72
2023/07/09 00:41:45;;;;;;;10.40;7.03;;;24.80;72.50;;;;;;5051055;28;20040;-72
2023/07/09 00:44:20;;;;;;;7.97;6.88;;;24.80;72.60;;;;;;5036691;28;20041;-71
2023/07/09 00:46:46;;;;;;;8.90;7.25;;;24.80;72.60;;;;;;5048904;28;20045;-71
2023/07/09 00:49:15;;;;;;;8.32;7.28;;;24.70;72.90;;;;;;5053432;28;20522;-71
2023/07/09 00:51:46;;;;;;;10.52;7.30;;;24.70;73.00;;;;;;5056795;28;20072;-72
2023/07/09 00:54:30;;;;;;;9.27;8.00;;;24.60;73.30;;;;;;5029214;28;20053;-71
2023/07/09 00:57:00;;;;;;;9.45;7.50;;;24.60;73.70;;;;;;5055726;28;20711;-71
2023/07/09 00:59:30;;;;;;;9.20;7.30;;;24.60;74.00;;;;;;5056570;28;20112;-72
2023/07/09 01:01:57;;;;;;;10.93;7.97;;;24.50;74.40;;;;;;5052820;28;20071;-71
2023/07/09 01:04:23;;;;;;;;;;;24.40;74.60;;;;;;5035264;28;20364;-70
2023/07/09 01:06:54;;;;;;;9.18;7.53;;;24.40;75.30;;;;;;5035894;28;19969;-72
2023/07/09 01:09:21;;;;;;;9.13;7.15;;;24.30;75.30;;;;;;5055767;28;20093;-72
2023/07/09 01:11:47;;;;;;;;;;;24.30;75.60;;;;;;5053165;28;20067;-71
2023/07/09 01:14:19;;;;;;;8.43;7.13;;;24.20;76.40;;;;;;5035310;28;20018;-72
2023/07/09 01:16:56;;;;;;;8.13;7.15;;;24.20;76.40;;;;;;5033847;28;20165;-72
2023/07/09 01:19:28;;;;;;;9.63;7.43;;;24.20;76.80;;;;;;5036405;28;20517;-73
2023/07/09 01:22:01;;;;;;;12.10;7.78;;;24.20;77.10;;;;;;5046499;28;20416;-72
2023/07/09 01:24:52;;;;;;;10.73;7.53;;;24.20;77.40;;;;;;5031888;28;20604;-72
2023/07/09 01:27:26;;;;;;;11.05;7.50;;;24.20;77.90;;;;;;5067394;28;20186;-72
2023/07/09 01:29:52;;;;;;;10.38;7.80;;;24.10;78.10;;;;;;5047287;28;20080;-73
2023/07/09 01:32:20;;;;;;;8.63;7.63;;;24.00;78.20;;;;;;5035065;28;20076;-72
2023/07/09 01:34:52;;;;;;;10.07;7.85;;;24.00;78.40;;;;;;5045946;28;20518;-71
2023/07/09 01:37:22;;;;;;;9.45;7.57;;;24.00;78.70;;;;;;5045331;28;20048;-72
2023/07/09 01:39:49;;;;;;;8.65;7.53;;;24.00;79.00;;;;;;5029072;28;20059;-72
2023/07/09 01:42:17;;;;;;;;;;;23.90;79.30;;;;;;5046909;28;20048;-71
2023/07/09 01:44:43;;;;;;;9.77;7.72;;;23.90;79.90;;;;;;5050786;28;19931;-71
2023/07/09 01:47:08;;;;;;;10.27;7.53;;;23.90;79.90;;;;;;5034635;28;20044;-70
2023/07/09 01:49:34;;;;;;;9.20;8.07;;;23.80;80.20;;;;;;5057692;28;20134;-72
2023/07/09 01:52:02;;;;;;;15.65;7.90;;;23.80;80.50;;;;;;5052461;28;20049;-72
2023/07/09 01:54:30;;;;;;;9.32;7.75;;;23.80;80.90;;;;;;5052652;28;20045;-71
2023/07/09 01:57:13;;;;;;;10.38;7.40;;;23.80;81.20;;;;;;5051563;28;20048;-72
2023/07/09 01:59:41;;;;;;;9.73;7.25;;;23.80;81.50;;;;;;5054662;28;20053;-71
2023/07/09 02:02:07;;;;;;;9.32;7.22;;;23.70;82.30;;;;;;5035665;28;20059;-73
2023/07/09 02:04:33;;;;;;;10.85;7.57;;;23.70;81.80;;;;;;5057769;28;20047;-74
2023/07/09 02:06:59;;;;;;;8.75;7.63;;;23.70;82.00;;;;;;5053656;28;20045;-74
2023/07/09 02:09:25;;;;;;;9.32;7.13;;;23.70;82.30;;;;;;5035352;28;20095;-71
2023/07/09 02:11:51;;;;;;;9.15;7.35;;;23.70;82.60;;;;;;5029317;28;20090;-70
2023/07/09 02:14:16;;;;;;;14.68;7.90;;;23.60;83.00;;;;;;5047425;28;20049;-70
2023/07/09 02:16:43;;;;;;;9.50;7.13;;;23.60;83.40;;;;;;5054697;28;20046;-70
2023/07/09 02:19:09;;;;;;;10.60;7.65;;;23.60;83.80;;;;;;5033269;28;20051;-70
2023/07/09 02:21:34;;;;;;;10.38;8.00;;;23.60;84.20;;;;;;5026130;28;20073;-72
2023/07/09 02:24:00;;;;;;;9.65;7.82;;;23.60;84.70;;;;;;5027352;28;20135;-70
2023/07/09 02:26:26;;;;;;;10.93;7.70;;;23.50;85.00;;;;;;5048029;28;20116;-71
2023/07/09 02:28:51;;;;;;;8.43;7.25;;;23.40;85.40;;;;;;5033257;28;20052;-73
2023/07/09 02:31:17;;;;;;;8.68;7.40;;;23.50;86.10;;;;;;5039292;28;20048;-71
2023/07/09 02:33:43;;;;;;;9.23;7.53;;;23.40;86.60;;;;;;5023666;28;20048;-70
2023/07/09 02:36:08;;;;;;;9.25;7.45;;;23.40;87.20;;;;;;5054660;28;20729;-70
2023/07/09 02:38:34;;;;;;;12.95;7.47;;;23.30;87.60;;;;;;5035887;28;20066;-71
2023/07/09 02:40:59;;;;;;;9.60;8.10;;;23.30;88.20;;;;;;5051535;28;20083;-71
2023/07/09 02:43:25;;;;;;;12.50;8.07;;;23.30;88.50;;;;;;5053283;28;20072;-72
2023/07/09 02:45:51;;;;;;;9.60;8.13;;;23.30;88.80;;;;;;5025359;28;20047;-71
2023/07/09 02:48:16;;;;;;;8.85;7.50;;;23.20;89.20;;;;;;5052787;28;20052;-70
2023/07/09 02:50:42;;;;;;;11.70;7.65;;;23.10;90.40;;;;;;5027330;28;20087;-70
2023/07/09 02:53:08;;;;;;;8.75;7.78;;;23.00;91.10;;;;;;5025113;28;20053;-70
2023/07/09 02:55:34;;;;;;;10.38;8.00;;;22.90;91.70;;;;;;5044852;28;20045;-71
2023/07/09 02:58:00;;;;;;;9.23;7.93;;;22.80;92.40;;;;;;5046003;28;20060;-72
2023/07/09 03:00:26;;;;;;;8.95;7.53;;;22.70;93.10;;;;;;5049612;28;20167;-71
2023/07/09 03:02:51;;;;;;;8.93;8.02;;;22.60;93.80;;;;;;5032790;28;20055;-71
2023/07/09 03:05:17;;;;;;;8.07;7.25;;;22.50;94.20;;;;;;5046515;28;20484;-71
2023/07/09 03:07:43;;;;;;;9.15;8.23;;;22.50;94.70;;;;;;5048262;28;20135;-71
2023/07/09 03:10:09;;;;;;;11.43;7.80;;;22.40;95.00;;;;;;5050312;28;20036;-71
2023/07/09 03:12:34;;;;;;;10.13;7.85;;;22.40;95.30;;;;;;5045041;28;20040;-71
2023/07/09 03:15:00;;;;;;;9.00;8.10;;;22.30;96.10;;;;;;5051157;28;20132;-71
2023/07/09 03:17:31;;;;;;;8.45;7.65;;;22.20;96.80;;;;;;5052332;28;20145;-70
2023/07/09 03:19:57;;;;;;;10.20;7.90;;;22.20;97.40;;;;;;5033054;28;20112;-70
2023/07/09 03:22:22;;;;;;;8.75;7.57;;;22.10;98.00;;;;;;5049630;28;20054;-71
2023/07/09 03:24:48;;;;;;;8.90;8.00;;;22.10;98.10;;;;;;5054839;28;21109;-70
2023/07/09 03:27:14;;;;;;;8.70;7.88;;;22.00;98.30;;;;;;5051880;28;20040;-72
2023/07/09 03:29:39;;;;;;;9.45;7.57;;;22.00;98.40;;;;;;5028291;28;20388;-71
2023/07/09 03:32:05;;;;;;;9.38;7.95;;;22.00;98.70;;;;;;5034291;28;20052;-71
2023/07/09 03:34:31;;;;;;;9.82;8.20;;;21.90;98.70;;;;;;5035133;28;20055;-69
2023/07/09 03:36:57;;;;;;;10.65;8.35;;;21.90;98.90;;;;;;5053322;28;20462;-71
2023/07/09 03:39:22;;;;;;;9.85;8.02;;;21.90;99.20;;;;;;5054102;28;20044;-71
2023/07/09 03:41:48;;;;;;;8.77;7.95;;;21.80;99.30;;;;;;5053802;28;20487;-72
2023/07/09 03:44:14;;;;;;;10.32;7.78;;;21.80;99.40;;;;;;5052517;28;20045;-71
2023/07/09 03:46:39;;;;;;;9.40;8.23;;;21.90;99.40;;;;;;5023861;28;20393;-70
2023/07/09 03:49:05;;;;;;;9.00;7.95;;;22.00;99.10;;;;;;5030294;28;20048;-70
2023/07/09 03:51:30;;;;;;;9.32;8.07;;;22.00;98.90;;;;;;5055771;28;20056;-70
2023/07/09 03:53:56;;;;;;;11.55;7.85;;;22.10;98.90;;;;;;5038838;28;20142;-71
2023/07/09 03:56:22;;;;;;;9.43;8.25;;;22.10;99.00;;;;;;5051054;28;20134;-70
2023/07/09 03:58:47;;;;;;;10.43;8.73;;;22.10;99.20;;;;;;5030733;28;20167;-71
2023/07/09 04:01:16;;;;;;;9.60;8.60;;;22.10;99.10;;;;;;5055070;28;20613;-71
2023/07/09 04:03:41;;;;;;;11.25;8.13;;;22.10;99.10;;;;;;5048482;28;20045;-70
2023/07/09 04:06:07;;;;;;;9.43;8.43;;;22.00;99.20;;;;;;5048282;28;20867;-70
2023/07/09 04:08:33;;;;;;;10.65;8.10;;;22.00;99.30;;;;;;5027920;28;20094;-70
2023/07/09 04:11:01;;;;;;;16.23;8.45;;;22.00;99.60;;;;;;5041332;28;20048;-71
2023/07/09 04:13:27;;;;;;;10.25;8.43;;;22.00;99.50;;;;;;5059776;28;20052;-70
2023/07/09 04:15:54;;;;;;;8.85;7.95;;;22.00;99.50;;;;;;5054985;28;20056;-70
2023/07/09 04:18:19;;;;;;;11.07;8.17;;;22.00;99.60;;;;;;5051712;28;20198;-70
2023/07/09 04:20:49;;;;;;;12.23;7.88;;;22.10;99.50;;;;;;5057988;28;20825;-71
2023/07/09 04:23:16;;;;;;;9.25;7.82;;;22.10;99.30;;;;;;5053017;28;20131;-73
2023/07/09 04:25:41;;;;;;;10.82;8.13;;;22.20;99.10;;;;;;5053281;28;20063;-70
2023/07/09 04:28:07;;;;;;;9.93;8.60;;;22.30;99.00;;;;;;5037407;28;20036;-71
2023/07/09 04:30:33;;;;;;;9.80;8.27;;;22.40;98.70;;;;;;5051963;28;20056;-71
2023/07/09 04:32:59;;;;;;;12.10;8.18;;;22.40;98.50;;;;;;5036425;28;20045;-70
2023/07/09 04:35:24;;;;;;;11.23;8.60;;;22.50;98.40;;;;;;5037862;28;20059;-71
2023/07/09 04:37:50;;;;;;;9.32;8.25;;;22.50;98.30;;;;;;5057338;28;20425;-70
2023/07/09 04:40:18;;;;;;;11.68;7.90;;;22.60;97.90;;;;;;5058434;28;20097;-70
2023/07/09 04:42:44;;;;;;;9.07;8.13;;;22.70;97.80;;;;;;5059634;28;20127;-72
2023/07/09 04:45:11;;;;;;;12.55;8.75;;;22.80;97.60;;;;;;5056998;28;20052;-71
2023/07/09 04:47:38;;;;;;;10.10;8.63;;;22.80;97.20;;;;;;5035366;28;20087;-71
2023/07/09 04:50:05;;;;;;;10.07;8.18;;;22.90;97.10;;;;;;5037521;28;20493;-71
2023/07/09 04:52:31;;;;;;;9.93;7.95;;;23.00;97.10;;;;;;5038714;28;20052;-70
2023/07/09 04:54:57;;;;;;;10.68;8.70;;;23.00;97.00;;;;;;5045880;28;20052;-70
2023/07/09 04:57:24;;;;;;;9.80;8.18;;;23.10;97.00;;;;;;5035838;28;20036;-70
2023/07/09 04:59:50;;;;;;;12.13;8.43;;;23.10;96.90;;;;;;5048534;28;20579;-70
2023/07/09 05:02:16;;;;;;;10.70;8.50;;;23.10;96.90;;;;;;5050245;28;20449;-71
2023/07/09 05:04:41;;;;;;;9.50;7.88;;;23.20;96.90;;;;;;5049579;28;20102;-70
2023/07/09 05:07:07;;;;;;;12.73;8.43;;;23.30;97.00;;;;;;5054439;28;20043;-70
2023/07/09 05:09:33;;;;;;;10.27;8.30;;;23.30;96.90;;;;;;5056120;28;20135;-71
2023/07/09 05:11:59;;;;;;;9.88;7.80;;;23.30;96.90;;;;;;5033980;28;20047;-70
2023/07/09 05:14:27;;;;;;;10.95;8.75;;;23.40;96.90;;;;;;5052370;28;20044;-71
2023/07/09 05:16:53;;;;;;;14.63;8.65;;;23.40;96.80;;;;;;5049908;28;20040;-71
2023/07/09 05:19:19;;;;;;;12.65;7.97;;;23.50;96.80;;;;;;5055127;28;20059;-70
2023/07/09 05:21:44;;;;;;;11.65;8.93;;;23.50;97.00;;;;;;5052653;28;20052;-70
2023/07/09 05:24:10;;;;;;;10.15;8.48;;;23.60;97.00;;;;;;5046160;28;20084;-72
2023/07/09 05:26:36;;;;;;;11.13;8.93;;;23.70;97.00;;;;;;5055517;28;20694;-71
2023/07/09 05:29:04;;;;;;;10.10;8.00;;;23.70;97.00;;;;;;5048739;28;20160;-70
2023/07/09 05:31:30;;;;;;;9.38;8.38;;;23.80;97.00;;;;;;5043755;28;20053;-70
2023/07/09 05:33:55;;;;;;;10.80;8.35;;;23.90;97.10;;;;;;5049431;28;20040;-70
2023/07/09 05:36:21;;;;;;;11.02;8.50;;;24.00;96.90;;;;;;5047697;28;20087;-74
2023/07/09 05:38:47;;;;;;;11.07;8.70;;;24.10;97.10;;;;;;5045351;28;20067;-74
2023/07/09 05:41:16;;;;;;;12.02;8.20;;;24.10;97.30;;;;;;5032677;28;20044;-73
2023/07/09 05:43:45;;;;;;;10.98;8.05;;;24.20;97.50;;;;;;5043225;28;20583;-71
2023/07/09 05:46:14;;;;;;;10.13;8.35;;;24.20;97.50;;;;;;5048074;28;20048;-73
2023/07/09 05:48:40;;;;;;;10.50;8.20;;;24.30;97.60;;;;;;5046193;28;20115;-71
2023/07/09 05:51:05;;;;;;;12.38;8.07;;;24.40;97.70;;;;;;5030750;28;20040;-73
2023/07/09 05:53:34;;;;;;;10.48;8.43;;;24.40;97.80;;;;;;5035544;28;20197;-73
2023/07/09 05:56:00;;;;;;;10.93;7.72;;;24.40;97.70;;;;;;5058385;28;21761;-73
2023/07/09 05:58:26;;;;;;;8.67;7.40;;;24.50;97.70;;;;;;5058856;28;20068;-76
2023/07/09 06:00:57;;;;;;;11.00;8.32;;;24.50;97.70;;;;;;5056588;28;20442;-76
2023/07/09 06:03:25;;;;;;;10.32;8.10;;;24.60;97.80;;;;;;5053650;28;20665;-74
2023/07/09 06:05:51;;;;;;;10.50;8.43;;;24.60;97.70;;;;;;5049970;28;20389;-74
2023/07/09 06:08:21;;;;;;;10.30;8.77;;;24.60;97.70;;;;;;5030206;28;20052;-73
2023/07/09 06:10:51;;;;;;;11.48;8.27;;;24.60;97.70;;;;;;5033792;28;20044;-74
2023/07/09 06:13:18;;;;;;;10.02;8.23;;;24.60;97.50;;;;;;5045896;28;20057;-76
2023/07/09 06:15:44;;;;;;;12.00;8.55;;;24.60;97.60;;;;;;5030059;28;20068;-75
2023/07/09 06:18:09;;;;;;;9.98;8.00;;;24.70;97.90;;;;;;5051574;28;20151;-76
2023/07/09 06:20:35;;;;;;;8.52;7.57;;;24.70;98.10;;;;;;5031605;28;20097;-75
2023/07/09 06:23:00;;;;;;;9.45;8.43;;;24.80;98.10;;;;;;5053564;28;20076;-73
2023/07/09 06:25:26;;;;;;;10.15;8.40;;;24.70;98.00;;;;;;5048973;28;20110;-73
2023/07/09 06:27:52;;;;;;;10.77;8.57;;;24.80;98.10;;;;;;5036885;28;20040;-75
2023/07/09 06:30:19;;;;;;;11.32;8.40;;;24.80;98.30;;;;;;5052043;28;20064;-73
2023/07/09 06:32:45;;;;;;;10.32;8.25;;;24.80;98.50;;;;;;5053962;28;20053;-72
2023/07/09 06:35:11;;;;;;;13.13;8.95;;;24.90;98.80;;;;;;5054912;28;20044;-73
2023/07/09 06:37:37;;;;;;;11.20;8.48;;;24.90;98.90;;;;;;5054783;28;20049;-74
2023/07/09 06:40:02;;;;;;;10.10;8.50;;;24.90;98.80;;;;;;5029314;28;21999;-74
2023/07/09 06:42:28;;;;;;;10.05;8.48;;;24.90;98.80;;;;;;5036002;28;20447;-73
2023/07/09 06:44:54;;;;;;;13.00;9.20;;;24.90;98.90;;;;;;5028325;28;20389;-72
2023/07/09 06:47:20;;;;;;;10.63;8.32;;;25.00;98.90;;;;;;5049202;28;20385;-70
2023/07/09 06:49:45;;;;;;;10.48;8.02;;;25.10;98.90;;;;;;5050596;28;20127;-70
2023/07/09 06:52:11;;;;;;;10.68;8.65;;;25.20;98.70;;;;;;5057260;28;20399;-70
2023/07/09 06:54:37;;;;;;;9.98;8.65;;;25.20;98.90;;;;;;5037775;28;20064;-71
2023/07/09 06:57:03;;;;;;;11.95;8.23;;;25.30;98.90;;;;;;5048163;28;20048;-70
2023/07/09 06:59:29;;;;;;;11.77;8.47;;;25.40;98.90;;;;;;5053228;28;20060;-71
2023/07/09 07:01:54;;;;;;;14.90;9.10;;;25.50;98.90;;;;;;5030672;28;20041;-69
2023/07/09 07:04:20;;;;;;;10.07;8.52;;;25.50;98.90;;;;;;5052671;28;20036;-69
2023/07/09 07:06:46;;;;;;;10.00;8.10;;;25.60;99.00;;;;;;5026879;28;20053;-70
2023/07/09 07:09:12;;;;;;;12.32;8.23;;;25.60;99.00;;;;;;5027657;28;20032;-70
2023/07/09 07:11:38;;;;;;;11.33;8.40;;;25.80;99.00;;;;;;5028287;28;20032;-70
2023/07/09 07:14:04;;;;;;;9.70;7.90;;;25.80;99.30;;;;;;5031062;28;20131;-70
2023/07/09 07:16:30;;;;;;;13.05;8.10;;;25.90;99.00;;;;;;5046055;28;20138;-71
2023/07/09 07:18:56;;;;;;;10.47;8.20;;;26.00;99.10;;;;;;5033180;28;20053;-71
2023/07/09 07:21:21;;;;;;;9.48;8.05;;;26.10;99.10;;;;;;5044775;28;20052;-70
2023/07/09 07:23:48;;;;;;;11.60;8.60;;;26.10;98.60;;;;;;5055765;28;20081;-71
2023/07/09 07:26:13;;;;;;;11.17;8.23;;;26.20;99.00;;;;;;5051511;28;20063;-69
2023/07/09 07:28:39;;;;;;;14.52;8.65;;;26.30;98.80;;;;;;5047372;28;20355;-71
2023/07/09 07:31:08;;;;;;;10.13;8.40;;;26.40;99.00;;;;;;5042662;28;20045;-71
2023/07/09 07:33:34;;;;;;;10.60;8.65;;;26.50;99.00;;;;;;5031093;28;20070;-70
2023/07/09 07:35:59;;;;;;;10.00;7.90;;;26.50;99.10;;;;;;5027949;28;20257;-70
2023/07/09 07:38:25;;;;;;;14.02;8.23;;;26.60;98.70;;;;;;5049525;28;20048;-71
2023/07/09 07:40:51;;;;;;;9.90;8.03;;;26.60;98.80;;;;;;5028384;28;20072;-70
2023/07/09 07:43:17;;;;;;;9.65;8.02;;;26.80;98.50;;;;;;5028504;28;20791;-70
2023/07/09 07:45:43;;;;;;;12.27;8.25;;;26.80;98.40;;;;;;5053188;28;20407;-70
2023/07/09 07:48:10;;;;;;;11.30;8.10;;;26.80;98.60;;;;;;5048503;28;20059;-69
2023/07/09 07:50:36;;;;;;;11.32;8.27;;;26.90;98.60;;;;;;5038573;28;20525;-71
2023/07/09 07:53:02;;;;;;;11.30;8.40;;;27.00;98.40;;;;;;5044483;28;20040;-70
2023/07/09 07:55:27;;;;;;;11.73;9.20;;;27.10;98.30;;;;;;5039287;28;20078;-70
2023/07/09 07:57:53;;;;;;;14.20;9.33;;;27.20;98.10;;;;;;5035460;28;20052;-71
2023/07/09 08:00:19;;;;;;;13.43;9.73;;;27.30;98.60;;;;;;5027997;28;20416;-71
2023/07/09 08:02:45;;;;;;;13.90;8.57;;;27.30;98.80;;;;;;5044074;28;20056;-70
2023/07/09 08:05:11;;;;;;;14.17;9.47;;;27.40;98.70;;;;;;5031410;28;20106;-70
2023/07/09 08:07:36;;;;;;;11.80;9.03;;;27.50;98.70;;;;;;5052720;28;20123;-70
2023/07/09 08:10:02;;;;;;;13.87;9.30;;;27.60;98.70;;;;;;5054950;28;20055;-70
2023/07/09 08:12:28;;;;;;;10.73;8.83;;;27.70;98.40;;;;;;5035281;28;20126;-70
2023/07/09 08:14:53;;;;;;;11.77;9.40;;;27.80;98.30;;;;;;5038537;28;20513;-69
2023/07/09 08:17:19;;;;;;;12.90;9.10;;;27.90;98.20;;;;;;5054162;28;20049;-70
2023/07/09 08:19:47;;;;;;;13.43;9.07;;;27.90;98.00;;;;;;5033353;28;20044;-72
2023/07/09 08:22:14;;;;;;;10.90;8.27;;;28.00;97.80;;;;;;5034717;28;20146;-73
2023/07/09 08:24:40;;;;;;;11.45;8.60;;;28.10;97.50;;;;;;5052272;28;21033;-71
2023/07/09 08:27:07;;;;;;;11.87;8.03;;;28.30;97.30;;;;;;5049774;28;20036;-72
2023/07/09 08:29:34;;;;;;;10.73;7.90;;;28.30;97.50;;;;;;5040299;28;20044;-72
2023/07/09 08:31:59;;;;;;;10.23;7.60;;;28.40;97.70;;;;;;5036517;28;20048;-73
2023/07/09 08:34:25;;;;;;;11.17;7.97;;;28.40;97.70;;;;;;5037529;28;20060;-72
2023/07/09 08:36:51;;;;;;;10.97;7.70;;;28.40;97.80;;;;;;5033122;28;20057;-71
2023/07/09 08:39:16;;;;;;;11.10;8.10;;;28.50;97.70;;;;;;5053298;28;20048;-73
2023/07/09 08:41:53;;;;;;;10.93;7.53;;;28.60;97.90;;;;;;5054662;28;20048;-73
2023/07/09 08:44:51;;;;;;;12.32;8.02;;;28.70;97.90;;;;;;5056506;28;20165;-72
2023/07/09 08:47:48;;;;;;;12.98;7.88;;;28.70;97.50;;;;;;5030438;28;20056;-75
2023/07/09 08:50:24;;;;;;;10.32;8.07;;;28.90;97.00;;;;;;5055770;28;20056;-73
2023/07/09 08:52:52;;;;;;;9.13;7.45;;;29.00;97.10;;;;;;5055152;28;20041;-72
2023/07/09 08:55:26;;;;;;;10.13;7.78;;;29.10;97.40;;;;;;5055138;28;20504;-73
2023/07/09 08:58:09;;;;;;;10.18;7.60;;;29.20;96.90;;;;;;5051981;28;20055;-73
2023/07/09 09:00:48;;;;;;;13.95;7.60;;;29.30;96.10;;;;;;5054790;28;21032;-72
2023/07/09 09:03:13;;;;;;;10.20;7.20;;;29.40;95.80;;;;;;5054278;28;20478;-73
2023/07/09 09:05:43;;;;;;;11.37;7.60;;;29.50;95.50;;;;;;5051089;28;20120;-73
2023/07/09 09:08:42;;;;;;;11.00;7.38;;;29.50;95.20;;;;;;5047181;28;20037;-72
2023/07/09 09:11:11;;;;;;;10.80;7.68;;;29.50;95.40;;;;;;5046153;28;20078;-73
2023/07/09 09:13:38;;;;;;;10.10;7.22;;;29.60;95.30;;;;;;5059495;28;20044;-75
2023/07/09 09:16:12;;;;;;;9.15;7.28;;;29.60;95.10;;;;;;5051543;28;20048;-73
2023/07/09 09:18:42;;;;;;;9.15;7.05;;;29.60;94.80;;;;;;5036579;28;20045;-71
2023/07/09 09:21:20;;;;;;;11.90;7.53;;;29.70;95.20;;;;;;5046540;28;20056;-73
2023/07/09 09:23:59;;;;;;;13.70;7.40;;;29.70;95.10;;;;;;5048921;28;20052;-72
2023/07/09 09:26:36;;;;;;;11.70;7.32;;;29.90;94.70;;;;;;5042554;28;20051;-72
2023/07/09 09:29:14;;;;;;;8.15;6.97;;;29.90;94.50;;;;;;5049752;28;20083;-73
2023/07/09 09:31:42;;;;;;;9.20;6.80;;;30.00;94.20;;;;;;5053555;28;20041;-72
2023/07/09 09:34:22;;;;;;;10.23;7.22;;;30.10;94.10;;;;;;5053557;28;20067;-74
2023/07/09 09:36:48;;;;;;;8.82;6.97;;;30.20;93.10;;;;;;5035015;28;20056;-74
2023/07/09 09:39:14;;;;;;;12.38;7.68;;;30.20;94.10;;;;;;5053744;28;20056;-74
2023/07/09 09:41:42;;;;;;;7.93;6.40;;;30.30;93.90;;;;;;5055202;28;20090;-73
2023/07/09 09:44:18;;;;;;;10.30;7.03;;;30.40;93.70;;;;;;5054789;28;20076;-76
2023/07/09 09:46:43;;;;;;;10.23;7.00;;;30.50;94.20;;;;;;5030508;28;20071;-75
2023/07/09 09:49:10;;;;;;;8.10;6.70;;;30.60;93.50;;;;;;5052384;28;20520;-75
2023/07/09 09:51:40;;;;;;;11.50;6.93;;;30.70;93.40;;;;;;5046484;28;20044;-75
2023/07/09 09:54:17;;;;;;;8.77;6.88;;;30.80;93.30;;;;;;5053072;28;20044;-75
2023/07/09 09:56:43;;;;;;;9.38;6.50;;;30.80;93.10;;;;;;5052450;28;21492;-75
2023/07/09 09:59:21;;;;;;;8.43;5.88;;;30.90;92.10;;;;;;5054021;28;20123;-72
2023/07/09 10:01:46;;;;;;;8.23;6.40;;;31.00;91.70;;;;;;5054267;28;20052;-73
2023/07/09 10:04:18;;;;;;;9.40;6.57;;;31.10;91.00;;;;;;5053826;28;20036;-72
2023/07/09 10:06:51;;;;;;;9.35;6.45;;;31.10;90.60;;;;;;5047030;28;20040;-73
2023/07/09 10:09:43;;;;;;;10.75;6.40;;;31.20;90.60;;;;;;5049238;28;21203;-73
2023/07/09 10:12:22;;;;;;;7.13;5.63;;;31.30;89.90;;;;;;5043447;28;20070;-73
2023/07/09 10:14:56;;;;;;;10.48;5.95;;;31.30;90.70;;;;;;5055863;28;22519;-73
2023/07/09 10:17:28;;;;;;;11.02;5.15;;;31.40;88.90;;;;;;5043936;28;20140;-72
2023/07/09 10:20:02;;;;;;;8.80;5.68;;;31.40;86.40;;;;;;5031382;28;20074;-72
2023/07/09 10:23:12;;;;;;;8.95;4.82;;;31.50;86.30;;;;;;5052492;28;20388;-74
2023/07/09 10:25:47;;;;;;;7.43;4.50;;;31.60;84.20;;;;;;5051882;28;20056;-72
2023/07/09 10:28:16;;;;;;;7.35;5.32;;;31.70;84.80;;;;;;5036110;28;20098;-73
2023/07/09 10:30:47;;;;;;;10.23;6.10;;;31.80;83.50;;;;;;5034876;28;20762;-71
2023/07/09 10:33:54;;;;;;;10.20;6.00;;;31.90;84.60;;;;;;5031737;28;20451;-73
2023/07/09 10:36:36;;;;;;;8.90;5.93;;;32.00;85.90;;;;;;5047714;28;20076;-74
2023/07/09 10:39:18;;;;;;;6.88;5.47;;;31.90;84.10;;;;;;5027184;28;20374;-72
2023/07/09 10:41:45;;;;;;;7.32;5.43;;;32.00;83.90;;;;;;5026300;28;20513;-72
2023/07/09 10:44:20;;;;;;;11.10;6.25;;;32.00;84.50;;;;;;5050733;28;20068;-71
2023/07/09 10:46:51;;;;;;;10.55;5.88;;;32.10;84.20;;;;;;5055788;28;20068;-73
2023/07/09 10:49:17;;;;;;;9.88;5.30;;;32.10;83.50;;;;;;5043311;28;20047;-74
2023/07/09 10:52:00;;;;;;;8.27;5.97;;;32.20;82.30;;;;;;5048055;28;20044;-73
2023/07/09 10:54:45;;;;;;;9.20;6.18;;;32.20;82.00;;;;;;5049758;28;20053;-75
2023/07/09 10:58:00;;;;;;;8.82;5.80;;;32.30;83.10;;;;;;5051062;28;20237;-73
2023/07/09 11:00:36;;;;;;;;;;;32.40;82.20;;;;;;4965986;28;20061;-75
2023/07/09 11:03:14;;;;;;;8.93;5.68;;;32.40;83.00;;;;;;5036119;28;19956;-75
2023/07/09 11:05:40;;;;;;;8.90;5.30;;;32.60;82.50;;;;;;5025980;28;20059;-71
2023/07/09 11:08:32;;;;;;;10.05;5.72;;;32.60;82.00;;;;;;5038713;28;20049;-72
2023/07/09 11:11:04;;;;;;;10.15;5.00;;;32.70;81.90;;;;;;5030913;28;20054;-73
2023/07/09 11:13:41;;;;;;;9.10;5.50;;;32.70;80.10;;;;;;5037155;28;20519;-74
2023/07/09 11:16:11;;;;;;;10.80;5.70;;;32.70;78.00;;;;;;5034505;28;20053;-74
2023/07/09 11:18:37;;;;;;;10.23;5.40;;;32.70;78.20;;;;;;5034156;28;20038;-72
2023/07/09 11:21:13;;;;;;;8.35;5.40;;;32.90;80.10;;;;;;5029351;28;20072;-71
2023/07/09 11:23:54;;;;;;;7.60;5.70;;;32.90;79.90;;;;;;5031391;28;20041;-73
2023/07/09 11:26:34;;;;;;;7.35;5.40;;;33.00;77.90;;;;;;5019179;28;20554;-72
2023/07/09 11:29:08;;;;;;;9.55;5.47;;;33.10;77.40;;;;;;5035733;28;20037;-72
2023/07/09 11:31:38;;;;;;;10.32;5.65;;;33.10;77.10;;;;;;5036665;28;20198;-73
2023/07/09 11:34:07;;;;;;;10.45;6.65;;;33.20;77.00;;;;;;5024499;28;20041;-71
2023/07/09 11:36:34;;;;;;;10.32;5.40;;;33.20;77.10;;;;;;5017102;28;20061;-72
2023/07/09 11:39:00;;;;;;;7.35;4.82;;;33.30;76.60;;;;;;5035219;28;20049;-71
2023/07/09 11:41:43;;;;;;;7.60;5.00;;;33.40;75.10;;;;;;5036074;28;20045;-73
2023/07/09 11:44:20;;;;;;;10.27;6.00;;;33.40;75.30;;;;;;5012463;28;20515;-73
2023/07/09 11:46:49;;;;;;;7.95;5.60;;;33.40;75.40;;;;;;5025526;28;20562;-74
2023/07/09 11:49:14;;;;;;;12.05;6.25;;;33.40;75.50;;;;;;5032540;28;20643;-71
2023/07/09 11:51:52;;;;;;;7.80;5.53;;;33.40;74.80;;;;;;5033939;28;20029;-71
2023/07/09 11:54:19;;;;;;;7.18;5.47;;;33.50;75.20;;;;;;5026317;28;20044;-74
2023/07/09 11:56:58;;;;;;;7.40;5.20;;;33.50;75.00;;;;;;5030811;28;20036;-74
2023/07/09 11:59:24;;;;;;;9.10;4.82;;;33.60;72.70;;;;;;5043743;28;22727;-72
2023/07/09 12:01:54;;;;;;;9.40;5.05;;;33.70;73.30;;;;;;5055183;28;20074;-73
2023/07/09 12:04:25;;;;;;;9.18;5.60;;;33.70;72.80;;;;;;5054636;28;20044;-74
2023/07/09 12:06:57;;;;;;;8.88;5.55;;;33.80;72.90;;;;;;5046838;28;20036;-73
2023/07/09 12:09:22;;;;;;;6.82;5.28;;;33.90;72.00;;;;;;5053336;28;20058;-73
2023/07/09 12:11:50;;;;;;;6.55;4.57;;;33.90;72.20;;;;;;5048461;28;20403;-73
2023/07/09 12:14:21;;;;;;;6.75;4.35;;;34.00;71.30;;;;;;5056158;28;20502;-73
2023/07/09 12:16:50;;;;;;;7.07;5.00;;;34.00;70.90;;;;;;5046739;28;20044;-74
2023/07/09 12:19:21;;;;;;;10.10;5.40;;;34.10;70.90;;;;;;5050227;28;22113;-71
2023/07/09 12:21:50;;;;;;;7.45;5.00;;;34.20;71.70;;;;;;5031761;28;20060;-72
2023/07/09 12:24:35;;;;;;;5.68;4.78;;;34.30;72.10;;;;;;5048033;28;20053;-71
2023/07/09 12:27:16;;;;;;;9.68;5.18;;;34.30;72.50;;;;;;5023973;28;20053;-69
2023/07/09 12:29:42;;;;;;;9.77;4.95;;;34.30;70.90;;;;;;5031582;28;20041;-73
2023/07/09 12:32:17;;;;;;;12.82;5.10;;;34.20;69.40;;;;;;5034819;28;20557;-74
2023/07/09 12:34:46;;;;;;;9.23;5.15;;;34.20;69.50;;;;;;5051719;28;20469;-71
2023/07/09 12:37:15;;;;;;;8.18;4.40;;;34.30;69.30;;;;;;5052967;28;20411;-71
2023/07/09 12:39:40;;;;;;;9.02;4.70;;;34.40;69.60;;;;;;5055605;28;20055;-72
2023/07/09 12:42:33;;;;;;;6.05;4.50;;;34.40;70.30;;;;;;5056265;28;20037;-71
2023/07/09 12:44:58;;;;;;;9.25;4.20;;;34.50;70.00;;;;;;5033353;28;20150;-72
2023/07/09 12:47:25;;;;;;;7.10;4.25;;;34.60;68.90;;;;;;5053070;28;20044;-70
2023/07/09 12:49:59;;;;;;;6.78;4.43;;;34.70;67.50;;;;;;5055946;28;20048;-71
2023/07/09 12:52:25;;;;;;;6.35;3.92;;;34.70;66.20;;;;;;5047422;28;20450;-71
2023/07/09 12:55:02;;;;;;;6.80;4.70;;;34.70;66.70;;;;;;5033751;28;20041;-72